sensor_id;sensor_type;location;lat;lon;timestamp;temperature;humidity
18103;DHT22;9178;51.120;6.192;2023-06-26T00:01:07;20.40;99.90
18103;DHT22;9178;51.120;6.192;2023-06-26T00:03:35;20.30;99.90
18103;DHT22;9178;51.120;6.192;2023-06-26T00:06:01;20.30;99.90
18103;DHT22;9178;51.120;6.192;2023-06-26T00:08:28;20.20;99.90
18103;DHT22;9178;51.120;6.192;2023-06-26T00:10:56;20.20;99.90
18103;DHT22;9178;51.120;6.192;2023-06-26T00:13:24;20.20;99.90
18103;DHT22;9178;51.120;6.192;2023-06-26T00:15:51;20.10;99.90
18103;DHT22;9178;51.120;6.192;2023-06-26T00:18:18;20.10;99.90
18103;DHT22;9178;51.120;6.192;2023-06-26T00:20:45;20.10;99.90
18103;DHT22;9178;51.120;6.192;2023-06-26T00:23:12;20.10;99.90
18103;DHT22;9178;51.120;6.192;2023-06-26T00:25:43;20.10;99.90
18103;DHT22;9178;51.120;6.192;2023-06-26T00:28:11;20.00;99.90
18103;DHT22;9178;51.120;6.192;2023-06-26T00:30:38;20.00;99.90
18103;DHT22;9178;51.120;6.192;2023-06-26T00:33:05;19.90;99.90
18103;DHT22;9178;51.120;6.192;2023-06-26T00:35:32;19.90;99.90
18103;DHT22;9178;51.120;6.192;2023-06-26T00:38:02;19.90;99.90
18103;DHT22;9178;51.120;6.192;2023-06-26T00:40:29;19.80;99.90
18103;DHT22;9178;51.120;6.192;2023-06-26T00:42:56;19.80;99.90
18103;DHT22;9178;51.120;6.192;2023-06-26T00:45:28;19.70;99.90
18103;DHT22;9178;51.120;6.192;2023-06-26T00:47:55;19.70;99.90
18103;DHT22;9178;51.120;6.192;2023-06-26T00:50:22;19.70;99.90
18103;DHT22;9178;51.120;6.192;2023-06-26T00:52:49;19.60;99.90
18103;DHT22;9178;51.120;6.192;2023-06-26T00:55:17;19.60;99.90
18103;DHT22;9178;51.120;6.192;2023-06-26T00:57:44;19.60;99.90
18103;DHT22;9178;51.120;6.192;2023-06-26T01:00:15;19.50;99.90
18103;DHT22;9178;51.120;6.192;2023-06-26T01:02:43;19.50;99.90
18103;DHT22;9178;51.120;6.192;2023-06-26T01:05:10;19.50;99.90
18103;DHT22;9178;51.120;6.192;2023-06-26T01:07:39;19.40;99.90
18103;DHT22;9178;51.120;6.192;2023-06-26T01:10:07;19.40;99.90
18103;DHT22;9178;51.120;6.192;2023-06-26T01:12:34;19.40;99.90
18103;DHT22;9178;51.120;6.192;2023-06-26T01:15:02;19.30;99.90
18103;DHT22;9178;51.120;6.192;2023-06-26T01:17:32;19.30;99.90
18103;DHT22;9178;51.120;6.192;2023-06-26T01:20:03;19.30;99.90
18103;DHT22;9178;51.120;6.192;2023-06-26T01:22:36;19.30;99.90
18103;DHT22;9178;51.120;6.192;2023-06-26T01:25:16;19.30;99.90
18103;DHT22;9178;51.120;6.192;2023-06-26T01:27:48;19.20;99.90
18103;DHT22;9178;51.120;6.192;2023-06-26T01:30:20;19.20;99.90
18103;DHT22;9178;51.120;6.192;2023-06-26T01:32:49;19.20;99.90
18103;DHT22;9178;51.120;6.192;2023-06-26T01:35:17;19.20;99.90
18103;DHT22;9178;51.120;6.192;2023-06-26T01:37:46;19.10;99.90
18103;DHT22;9178;51.120;6.192;2023-06-26T01:40:13;19.10;99.90
18103;DHT22;9178;51.120;6.192;2023-06-26T01:42:40;19.10;99.90
18103;DHT22;9178;51.120;6.192;2023-06-26T01:45:27;19.10;99.90
18103;DHT22;9178;51.120;6.192;2023-06-26T01:47:55;19.10;99.90
18103;DHT22;9178;51.120;6.192;2023-06-26T01:50:27;19.10;99.90
18103;DHT22;9178;51.120;6.192;2023-06-26T01:53:01;19.10;99.90
18103;DHT22;9178;51.120;6.192;2023-06-26T01:55:32;19.00;99.90
18103;DHT22;9178;51.120;6.192;2023-06-26T01:58:15;19.00;99.90
18103;DHT22;9178;51.120;6.192;2023-06-26T02:00:45;19.00;99.90
18103;DHT22;9178;51.120;6.192;2023-06-26T02:03:12;19.00;99.90
18103;DHT22;9178;51.120;6.192;2023-06-26T02:05:39;19.00;99.90
18103;DHT22;9178;51.120;6.192;2023-06-26T02:08:07;18.90;99.90
18103;DHT22;9178;51.120;6.192;2023-06-26T02:10:34;18.90;99.90
18103;DHT22;9178;51.120;6.192;2023-06-26T02:13:01;18.90;99.90
18103;DHT22;9178;51.120;6.192;2023-06-26T02:15:46;18.90;99.90
18103;DHT22;9178;51.120;6.192;2023-06-26T02:18:13;18.90;99.90
18103;DHT22;9178;51.120;6.192;2023-06-26T02:20:41;18.90;99.90
18103;DHT22;9178;51.120;6.192;2023-06-26T02:23:09;18.90;99.90
18103;DHT22;9178;51.120;6.192;2023-06-26T02:25:38;18.90;99.90
18103;DHT22;9178;51.120;6.192;2023-06-26T02:28:05;18.90;99.90
18103;DHT22;9178;51.120;6.192;2023-06-26T02:30:32;18.90;99.90
18103;DHT22;9178;51.120;6.192;2023-06-26T02:33:01;18.90;99.90
18103;DHT22;9178;51.120;6.192;2023-06-26T02:35:28;18.90;99.90
18103;DHT22;9178;51.120;6.192;2023-06-26T02:37:57;19.00;99.90
18103;DHT22;9178;51.120;6.192;2023-06-26T02:40:24;19.00;99.90
18103;DHT22;9178;51.120;6.192;2023-06-26T02:42:56;19.00;99.90
18103;DHT22;9178;51.120;6.192;2023-06-26T02:45:26;19.00;99.90
18103;DHT22;9178;51.120;6.192;2023-06-26T02:47:53;19.10;99.90
18103;DHT22;9178;51.120;6.192;2023-06-26T02:50:21;19.00;99.90
18103;DHT22;9178;51.120;6.192;2023-06-26T02:52:50;19.10;99.90
18103;DHT22;9178;51.120;6.192;2023-06-26T02:55:18;19.00;99.90
18103;DHT22;9178;51.120;6.192;2023-06-26T02:57:45;19.00;99.90
18103;DHT22;9178;51.120;6.192;2023-06-26T03:00:22;19.00;99.90
18103;DHT22;9178;51.120;6.192;2023-06-26T03:02:52;19.00;99.90
18103;DHT22;9178;51.120;6.192;2023-06-26T03:05:20;19.10;99.90
18103;DHT22;9178;51.120;6.192;2023-06-26T03:07:49;19.00;99.90
18103;DHT22;9178;51.120;6.192;2023-06-26T03:10:16;19.10;99.90
18103;DHT22;9178;51.120;6.192;2023-06-26T03:12:46;19.10;99.90
18103;DHT22;9178;51.120;6.192;2023-06-26T03:15:13;19.00;99.90
18103;DHT22;9178;51.120;6.192;2023-06-26T03:17:42;19.00;99.90
18103;DHT22;9178;51.120;6.192;2023-06-26T03:20:12;19.00;99.90
18103;DHT22;9178;51.120;6.192;2023-06-26T03:22:40;19.00;99.90
18103;DHT22;9178;51.120;6.192;2023-06-26T03:25:08;19.00;99.90
18103;DHT22;9178;51.120;6.192;2023-06-26T03:27:35;19.00;99.90
18103;DHT22;9178;51.120;6.192;2023-06-26T03:30:04;18.90;99.90
18103;DHT22;9178;51.120;6.192;2023-06-26T03:32:31;18.90;99.90
18103;DHT22;9178;51.120;6.192;2023-06-26T03:34:58;18.90;99.90
18103;DHT22;9178;51.120;6.192;2023-06-26T03:37:27;18.90;99.90
18103;DHT22;9178;51.120;6.192;2023-06-26T03:39:55;18.90;99.90
18103;DHT22;9178;51.120;6.192;2023-06-26T03:42:24;18.90;99.90
18103;DHT22;9178;51.120;6.192;2023-06-26T03:44:51;18.90;99.90
18103;DHT22;9178;51.120;6.192;2023-06-26T03:47:18;18.90;99.90
18103;DHT22;9178;51.120;6.192;2023-06-26T03:49:45;18.90;99.90
18103;DHT22;9178;51.120;6.192;2023-06-26T03:52:12;18.90;99.90
18103;DHT22;9178;51.120;6.192;2023-06-26T03:54:41;18.90;99.90
18103;DHT22;9178;51.120;6.192;2023-06-26T03:57:10;19.00;99.90
18103;DHT22;9178;51.120;6.192;2023-06-26T03:59:37;19.00;99.90
18103;DHT22;9178;51.120;6.192;2023-06-26T04:02:04;19.10;99.90
18103;DHT22;9178;51.120;6.192;2023-06-26T04:04:37;19.10;99.90
18103;DHT22;9178;51.120;6.192;2023-06-26T04:07:04;19.10;99.90
18103;DHT22;9178;51.120;6.192;2023-06-26T04:09:33;19.00;99.90
18103;DHT22;9178;51.120;6.192;2023-06-26T04:12:00;19.00;99.90
18103;DHT22;9178;51.120;6.192;2023-06-26T04:14:31;19.00;99.90
18103;DHT22;9178;51.120;6.192;2023-06-26T04:16:59;19.00;99.90
18103;DHT22;9178;51.120;6.192;2023-06-26T04:19:27;19.00;99.90
18103;DHT22;9178;51.120;6.192;2023-06-26T04:21:54;19.00;99.90
18103;DHT22;9178;51.120;6.192;2023-06-26T04:24:21;19.00;99.90
18103;DHT22;9178;51.120;6.192;2023-06-26T04:26:51;19.00;99.90
18103;DHT22;9178;51.120;6.192;2023-06-26T04:29:23;19.00;99.90
18103;DHT22;9178;51.120;6.192;2023-06-26T04:31:52;19.00;99.90
18103;DHT22;9178;51.120;6.192;2023-06-26T04:34:26;19.00;99.90
18103;DHT22;9178;51.120;6.192;2023-06-26T04:36:54;19.10;99.90
18103;DHT22;9178;51.120;6.192;2023-06-26T04:39:20;19.10;99.90
18103;DHT22;9178;51.120;6.192;2023-06-26T04:41:48;19.10;99.90
18103;DHT22;9178;51.120;6.192;2023-06-26T04:44:17;19.20;99.90
18103;DHT22;9178;51.120;6.192;2023-06-26T04:46:47;19.20;99.90
18103;DHT22;9178;51.120;6.192;2023-06-26T04:49:18;19.20;99.90
18103;DHT22;9178;51.120;6.192;2023-06-26T04:51:45;19.20;99.90
18103;DHT22;9178;51.120;6.192;2023-06-26T04:54:14;19.10;99.90
18103;DHT22;9178;51.120;6.192;2023-06-26T04:56:43;19.20;99.90
18103;DHT22;9178;51.120;6.192;2023-06-26T04:59:12;19.20;99.90
18103;DHT22;9178;51.120;6.192;2023-06-26T05:01:40;19.20;99.90
18103;DHT22;9178;51.120;6.192;2023-06-26T05:04:07;19.20;99.90
18103;DHT22;9178;51.120;6.192;2023-06-26T05:06:35;19.20;99.90
18103;DHT22;9178;51.120;6.192;2023-06-26T05:09:02;19.20;99.90
18103;DHT22;9178;51.120;6.192;2023-06-26T05:11:29;19.30;99.90
18103;DHT22;9178;51.120;6.192;2023-06-26T05:13:56;19.30;99.90
18103;DHT22;9178;51.120;6.192;2023-06-26T05:16:23;19.40;99.90
18103;DHT22;9178;51.120;6.192;2023-06-26T05:18:50;19.40;99.90
18103;DHT22;9178;51.120;6.192;2023-06-26T05:21:18;19.40;99.90
18103;DHT22;9178;51.120;6.192;2023-06-26T05:23:47;19.50;99.90
18103;DHT22;9178;51.120;6.192;2023-06-26T05:26:14;19.50;99.90
18103;DHT22;9178;51.120;6.192;2023-06-26T05:28:42;19.60;99.90
18103;DHT22;9178;51.120;6.192;2023-06-26T05:31:14;19.60;99.90
18103;DHT22;9178;51.120;6.192;2023-06-26T05:33:43;19.60;99.90
18103;DHT22;9178;51.120;6.192;2023-06-26T05:36:12;19.70;99.90
18103;DHT22;9178;51.120;6.192;2023-06-26T05:38:40;19.70;99.90
18103;DHT22;9178;51.120;6.192;2023-06-26T05:41:09;19.80;99.90
18103;DHT22;9178;51.120;6.192;2023-06-26T05:43:36;19.80;99.90
18103;DHT22;9178;51.120;6.192;2023-06-26T05:46:03;19.80;99.90
18103;DHT22;9178;51.120;6.192;2023-06-26T05:48:30;19.80;99.90
18103;DHT22;9178;51.120;6.192;2023-06-26T05:50:57;19.80;99.90
18103;DHT22;9178;51.120;6.192;2023-06-26T05:53:37;19.90;99.90
18103;DHT22;9178;51.120;6.192;2023-06-26T05:56:05;20.00;99.90
18103;DHT22;9178;51.120;6.192;2023-06-26T05:58:37;20.00;99.90
18103;DHT22;9178;51.120;6.192;2023-06-26T06:01:04;20.00;99.90
18103;DHT22;9178;51.120;6.192;2023-06-26T06:03:34;20.00;99.90
18103;DHT22;9178;51.120;6.192;2023-06-26T06:06:02;20.10;99.90
18103;DHT22;9178;51.120;6.192;2023-06-26T06:08:31;20.10;99.90
18103;DHT22;9178;51.120;6.192;2023-06-26T06:10:59;20.10;99.90
18103;DHT22;9178;51.120;6.192;2023-06-26T06:13:26;20.10;99.90
18103;DHT22;9178;51.120;6.192;2023-06-26T06:15:55;20.10;99.90
18103;DHT22;9178;51.120;6.192;2023-06-26T06:18:23;20.20;99.90
18103;DHT22;9178;51.120;6.192;2023-06-26T06:20:53;20.20;99.90
18103;DHT22;9178;51.120;6.192;2023-06-26T06:23:20;20.10;99.90
18103;DHT22;9178;51.120;6.192;2023-06-26T06:25:50;20.10;99.90
18103;DHT22;9178;51.120;6.192;2023-06-26T06:28:18;20.20;99.90
18103;DHT22;9178;51.120;6.192;2023-06-26T06:30:44;20.30;99.90
18103;DHT22;9178;51.120;6.192;2023-06-26T06:33:14;20.30;99.90
18103;DHT22;9178;51.120;6.192;2023-06-26T06:35:44;20.30;99.90
18103;DHT22;9178;51.120;6.192;2023-06-26T06:38:14;20.40;99.90
18103;DHT22;9178;51.120;6.192;2023-06-26T06:40:43;20.50;99.90
18103;DHT22;9178;51.120;6.192;2023-06-26T06:43:13;20.50;99.90
18103;DHT22;9178;51.120;6.192;2023-06-26T06:45:41;20.50;99.90
18103;DHT22;9178;51.120;6.192;2023-06-26T06:48:08;20.50;99.90
18103;DHT22;9178;51.120;6.192;2023-06-26T06:50:38;20.60;99.90
18103;DHT22;9178;51.120;6.192;2023-06-26T06:53:08;20.70;99.90
18103;DHT22;9178;51.120;6.192;2023-06-26T06:55:38;20.70;99.90
18103;DHT22;9178;51.120;6.192;2023-06-26T06:58:05;20.80;99.90
18103;DHT22;9178;51.120;6.192;2023-06-26T07:00:32;20.90;99.90
18103;DHT22;9178;51.120;6.192;2023-06-26T07:02:59;21.00;99.90
18103;DHT22;9178;51.120;6.192;2023-06-26T07:05:27;21.10;99.90
18103;DHT22;9178;51.120;6.192;2023-06-26T07:07:55;21.20;99.90
18103;DHT22;9178;51.120;6.192;2023-06-26T07:10:22;21.30;99.90
18103;DHT22;9178;51.120;6.192;2023-06-26T07:12:49;21.60;99.90
18103;DHT22;9178;51.120;6.192;2023-06-26T07:15:17;21.70;99.90
18103;DHT22;9178;51.120;6.192;2023-06-26T07:17:44;21.70;99.90
18103;DHT22;9178;51.120;6.192;2023-06-26T07:20:11;21.80;99.90
18103;DHT22;9178;51.120;6.192;2023-06-26T07:22:41;21.70;99.90
18103;DHT22;9178;51.120;6.192;2023-06-26T07:25:29;21.80;99.90
18103;DHT22;9178;51.120;6.192;2023-06-26T07:27:57;22.10;99.90
18103;DHT22;9178;51.120;6.192;2023-06-26T07:30:24;22.40;99.90
18103;DHT22;9178;51.120;6.192;2023-06-26T07:32:57;22.60;99.90
18103;DHT22;9178;51.120;6.192;2023-06-26T07:35:44;22.70;99.90
18103;DHT22;9178;51.120;6.192;2023-06-26T07:38:24;22.70;99.90
18103;DHT22;9178;51.120;6.192;2023-06-26T07:41:01;22.80;99.90
18103;DHT22;9178;51.120;6.192;2023-06-26T07:43:28;23.00;99.90
18103;DHT22;9178;51.120;6.192;2023-06-26T07:45:56;23.10;99.90
18103;DHT22;9178;51.120;6.192;2023-06-26T07:48:24;23.10;99.90
18103;DHT22;9178;51.120;6.192;2023-06-26T07:50:54;22.90;99.90
18103;DHT22;9178;51.120;6.192;2023-06-26T07:53:21;22.70;99.90
18103;DHT22;9178;51.120;6.192;2023-06-26T07:55:48;22.60;99.90
18103;DHT22;9178;51.120;6.192;2023-06-26T07:58:17;22.50;99.90
18103;DHT22;9178;51.120;6.192;2023-06-26T08:00:44;22.40;99.90
18103;DHT22;9178;51.120;6.192;2023-06-26T08:03:14;22.30;99.90
18103;DHT22;9178;51.120;6.192;2023-06-26T08:05:41;22.30;99.90
18103;DHT22;9178;51.120;6.192;2023-06-26T08:08:08;22.20;99.90
18103;DHT22;9178;51.120;6.192;2023-06-26T08:10:36;22.20;99.90
18103;DHT22;9178;51.120;6.192;2023-06-26T08:13:03;22.20;99.90
18103;DHT22;9178;51.120;6.192;2023-06-26T08:15:31;22.30;99.90
18103;DHT22;9178;51.120;6.192;2023-06-26T08:17:58;22.40;99.90
18103;DHT22;9178;51.120;6.192;2023-06-26T08:23:21;22.50;99.90
18103;DHT22;9178;51.120;6.192;2023-06-26T08:25:58;22.70;99.90
18103;DHT22;9178;51.120;6.192;2023-06-26T08:28:25;22.70;99.90
18103;DHT22;9178;51.120;6.192;2023-06-26T08:30:57;22.70;99.90
18103;DHT22;9178;51.120;6.192;2023-06-26T08:33:28;22.60;99.90
18103;DHT22;9178;51.120;6.192;2023-06-26T08:35:55;22.70;99.90
18103;DHT22;9178;51.120;6.192;2023-06-26T08:38:24;22.70;99.90
18103;DHT22;9178;51.120;6.192;2023-06-26T08:40:51;22.60;99.90
18103;DHT22;9178;51.120;6.192;2023-06-26T08:46:17;22.80;99.90
18103;DHT22;9178;51.120;6.192;2023-06-26T08:49:01;23.00;99.90
18103;DHT22;9178;51.120;6.192;2023-06-26T08:54:45;23.70;99.90
18103;DHT22;9178;51.120;6.192;2023-06-26T08:57:23;24.10;99.90
18103;DHT22;9178;51.120;6.192;2023-06-26T08:59:55;24.20;99.90
18103;DHT22;9178;51.120;6.192;2023-06-26T09:02:25;24.40;99.90
18103;DHT22;9178;51.120;6.192;2023-06-26T09:04:52;24.80;99.90
18103;DHT22;9178;51.120;6.192;2023-06-26T09:07:21;25.30;99.90
18103;DHT22;9178;51.120;6.192;2023-06-26T09:09:57;25.50;99.90
18103;DHT22;9178;51.120;6.192;2023-06-26T09:12:27;25.50;99.90
18103;DHT22;9178;51.120;6.192;2023-06-26T09:14:55;25.30;99.90
18103;DHT22;9178;51.120;6.192;2023-06-26T09:17:29;25.00;99.90
18103;DHT22;9178;51.120;6.192;2023-06-26T09:20:06;25.10;99.90
18103;DHT22;9178;51.120;6.192;2023-06-26T09:22:37;25.50;99.90
18103;DHT22;9178;51.120;6.192;2023-06-26T09:25:14;25.60;99.90
18103;DHT22;9178;51.120;6.192;2023-06-26T09:27:43;25.40;99.90
18103;DHT22;9178;51.120;6.192;2023-06-26T09:30:11;25.70;99.90
18103;DHT22;9178;51.120;6.192;2023-06-26T09:32:43;26.20;99.90
18103;DHT22;9178;51.120;6.192;2023-06-26T09:35:13;26.50;99.90
18103;DHT22;9178;51.120;6.192;2023-06-26T09:37:40;26.80;99.90
18103;DHT22;9178;51.120;6.192;2023-06-26T09:40:09;27.00;99.90
18103;DHT22;9178;51.120;6.192;2023-06-26T09:42:36;27.00;99.90
18103;DHT22;9178;51.120;6.192;2023-06-26T09:45:04;26.80;99.90
18103;DHT22;9178;51.120;6.192;2023-06-26T09:47:39;27.00;99.90
18103;DHT22;9178;51.120;6.192;2023-06-26T09:50:23;27.30;99.90
18103;DHT22;9178;51.120;6.192;2023-06-26T09:52:54;27.60;99.90
18103;DHT22;9178;51.120;6.192;2023-06-26T09:55:25;27.40;99.90
18103;DHT22;9178;51.120;6.192;2023-06-26T09:57:57;26.80;99.90
18103;DHT22;9178;51.120;6.192;2023-06-26T10:00:31;26.70;99.90
18103;DHT22;9178;51.120;6.192;2023-06-26T10:03:08;27.20;99.90
18103;DHT22;9178;51.120;6.192;2023-06-26T10:05:41;27.90;99.90
18103;DHT22;9178;51.120;6.192;2023-06-26T10:08:13;28.00;99.90
18103;DHT22;9178;51.120;6.192;2023-06-26T10:10:59;27.40;98.60
18103;DHT22;9178;51.120;6.192;2023-06-26T10:13:38;26.80;99.90
18103;DHT22;9178;51.120;6.192;2023-06-26T10:16:08;27.10;99.90
18103;DHT22;9178;51.120;6.192;2023-06-26T10:18:44;27.80;99.90
18103;DHT22;9178;51.120;6.192;2023-06-26T10:21:14;28.50;99.90
18103;DHT22;9178;51.120;6.192;2023-06-26T10:23:44;29.10;96.40
18103;DHT22;9178;51.120;6.192;2023-06-26T10:26:12;29.40;95.10
18103;DHT22;9178;51.120;6.192;2023-06-26T10:28:42;29.90;95.00
18103;DHT22;9178;51.120;6.192;2023-06-26T10:31:11;30.50;94.00
18103;DHT22;9178;51.120;6.192;2023-06-26T10:33:39;30.20;91.30
18103;DHT22;9178;51.120;6.192;2023-06-26T10:36:19;29.40;85.20
18103;DHT22;9178;51.120;6.192;2023-06-26T10:38:54;28.60;88.00
18103;DHT22;9178;51.120;6.192;2023-06-26T10:41:22;28.30;88.70
18103;DHT22;9178;51.120;6.192;2023-06-26T10:43:50;28.70;88.30
18103;DHT22;9178;51.120;6.192;2023-06-26T10:46:18;29.10;90.50
18103;DHT22;9178;51.120;6.192;2023-06-26T10:48:56;28.80;87.80
18103;DHT22;9178;51.120;6.192;2023-06-26T10:51:25;29.00;91.40
18103;DHT22;9178;51.120;6.192;2023-06-26T10:53:56;28.90;88.80
18103;DHT22;9178;51.120;6.192;2023-06-26T10:56:41;29.30;87.80
18103;DHT22;9178;51.120;6.192;2023-06-26T10:59:16;29.20;84.00
18103;DHT22;9178;51.120;6.192;2023-06-26T11:04:39;28.50;84.80
18103;DHT22;9178;51.120;6.192;2023-06-26T11:07:19;28.20;81.50
18103;DHT22;9178;51.120;6.192;2023-06-26T11:09:57;27.70;84.90
18103;DHT22;9178;51.120;6.192;2023-06-26T11:12:37;27.30;88.90
18103;DHT22;9178;51.120;6.192;2023-06-26T11:15:08;26.90;90.00
18103;DHT22;9178;51.120;6.192;2023-06-26T11:17:36;26.70;81.80
18103;DHT22;9178;51.120;6.192;2023-06-26T11:20:04;27.10;85.50
18103;DHT22;9178;51.120;6.192;2023-06-26T11:22:36;27.90;85.70
18103;DHT22;9178;51.120;6.192;2023-06-26T11:25:04;28.70;83.90
18103;DHT22;9178;51.120;6.192;2023-06-26T11:27:32;29.20;72.30
18103;DHT22;9178;51.120;6.192;2023-06-26T11:29:59;29.00;74.80
18103;DHT22;9178;51.120;6.192;2023-06-26T11:32:27;28.50;72.50
18103;DHT22;9178;51.120;6.192;2023-06-26T11:34:55;28.20;70.30
18103;DHT22;9178;51.120;6.192;2023-06-26T11:37:22;28.30;76.10
18103;DHT22;9178;51.120;6.192;2023-06-26T11:39:51;28.70;71.60
18103;DHT22;9178;51.120;6.192;2023-06-26T11:42:19;29.20;71.90
18103;DHT22;9178;51.120;6.192;2023-06-26T11:44:47;29.70;72.40
18103;DHT22;9178;51.120;6.192;2023-06-26T11:47:15;29.50;72.00
18103;DHT22;9178;51.120;6.192;2023-06-26T11:49:43;29.20;71.40
18103;DHT22;9178;51.120;6.192;2023-06-26T11:52:14;29.10;67.20
18103;DHT22;9178;51.120;6.192;2023-06-26T11:54:43;28.50;64.80
18103;DHT22;9178;51.120;6.192;2023-06-26T11:57:15;28.00;68.50
18103;DHT22;9178;51.120;6.192;2023-06-26T11:59:44;28.00;71.70
18103;DHT22;9178;51.120;6.192;2023-06-26T12:02:14;28.00;70.10
18103;DHT22;9178;51.120;6.192;2023-06-26T12:04:42;27.80;73.00
18103;DHT22;9178;51.120;6.192;2023-06-26T12:07:10;27.80;73.70
18103;DHT22;9178;51.120;6.192;2023-06-26T12:09:42;27.70;69.30
18103;DHT22;9178;51.120;6.192;2023-06-26T12:12:19;27.60;69.60
18103;DHT22;9178;51.120;6.192;2023-06-26T12:14:47;27.70;72.60
18103;DHT22;9178;51.120;6.192;2023-06-26T12:17:14;28.20;70.90
18103;DHT22;9178;51.120;6.192;2023-06-26T12:19:44;28.60;69.80
18103;DHT22;9178;51.120;6.192;2023-06-26T12:22:13;29.00;67.90
18103;DHT22;9178;51.120;6.192;2023-06-26T12:24:40;29.60;64.00
18103;DHT22;9178;51.120;6.192;2023-06-26T12:27:15;29.80;68.40
18103;DHT22;9178;51.120;6.192;2023-06-26T12:29:51;30.20;67.50
18103;DHT22;9178;51.120;6.192;2023-06-26T12:32:27;30.70;59.70
18103;DHT22;9178;51.120;6.192;2023-06-26T12:34:56;30.80;59.90
18103;DHT22;9178;51.120;6.192;2023-06-26T12:37:23;30.30;59.40
18103;DHT22;9178;51.120;6.192;2023-06-26T12:39:52;30.40;59.20
18103;DHT22;9178;51.120;6.192;2023-06-26T12:42:21;30.60;55.60
18103;DHT22;9178;51.120;6.192;2023-06-26T12:44:51;30.70;57.60
18103;DHT22;9178;51.120;6.192;2023-06-26T12:47:26;30.90;59.80
18103;DHT22;9178;51.120;6.192;2023-06-26T12:49:53;31.20;57.80
18103;DHT22;9178;51.120;6.192;2023-06-26T12:52:21;31.80;59.70
18103;DHT22;9178;51.120;6.192;2023-06-26T12:54:52;32.30;56.30
18103;DHT22;9178;51.120;6.192;2023-06-26T12:57:20;31.60;57.50
18103;DHT22;9178;51.120;6.192;2023-06-26T12:59:47;31.40;58.40
18103;DHT22;9178;51.120;6.192;2023-06-26T13:02:17;31.40;59.30
18103;DHT22;9178;51.120;6.192;2023-06-26T13:04:45;31.50;56.10
18103;DHT22;9178;51.120;6.192;2023-06-26T13:07:12;30.80;57.40
18103;DHT22;9178;51.120;6.192;2023-06-26T13:09:39;30.30;57.50
18103;DHT22;9178;51.120;6.192;2023-06-26T13:14:52;30.70;60.00
18103;DHT22;9178;51.120;6.192;2023-06-26T13:17:21;30.90;58.00
18103;DHT22;9178;51.120;6.192;2023-06-26T13:19:49;30.10;55.10
18103;DHT22;9178;51.120;6.192;2023-06-26T13:22:16;29.40;57.80
18103;DHT22;9178;51.120;6.192;2023-06-26T13:24:42;29.10;57.40
18103;DHT22;9178;51.120;6.192;2023-06-26T13:27:25;29.50;55.00
18103;DHT22;9178;51.120;6.192;2023-06-26T13:29:52;29.40;56.20
18103;DHT22;9178;51.120;6.192;2023-06-26T13:32:22;29.60;57.20
18103;DHT22;9178;51.120;6.192;2023-06-26T13:34:50;29.90;54.70
18103;DHT22;9178;51.120;6.192;2023-06-26T13:37:20;29.50;56.50
18103;DHT22;9178;51.120;6.192;2023-06-26T13:39:47;29.40;57.90
18103;DHT22;9178;51.120;6.192;2023-06-26T13:42:30;29.80;55.10
18103;DHT22;9178;51.120;6.192;2023-06-26T13:44:57;30.20;56.70
18103;DHT22;9178;51.120;6.192;2023-06-26T13:47:25;30.20;56.20
18103;DHT22;9178;51.120;6.192;2023-06-26T13:49:53;30.30;52.40
18103;DHT22;9178;51.120;6.192;2023-06-26T13:52:20;30.40;53.40
18103;DHT22;9178;51.120;6.192;2023-06-26T13:54:56;30.90;53.10
18103;DHT22;9178;51.120;6.192;2023-06-26T13:57:23;31.10;52.20
18103;DHT22;9178;51.120;6.192;2023-06-26T13:59:53;30.90;49.00
18103;DHT22;9178;51.120;6.192;2023-06-26T14:02:25;30.70;51.40
18103;DHT22;9178;51.120;6.192;2023-06-26T14:04:53;31.10;52.70
18103;DHT22;9178;51.120;6.192;2023-06-26T14:07:20;30.60;51.40
18103;DHT22;9178;51.120;6.192;2023-06-26T14:09:47;30.80;53.50
18103;DHT22;9178;51.120;6.192;2023-06-26T14:12:35;31.00;54.10
18103;DHT22;9178;51.120;6.192;2023-06-26T14:15:03;31.20;54.50
18103;DHT22;9178;51.120;6.192;2023-06-26T14:17:31;31.10;52.00
18103;DHT22;9178;51.120;6.192;2023-06-26T14:19:58;30.50;53.30
18103;DHT22;9178;51.120;6.192;2023-06-26T14:22:28;30.00;52.90
18103;DHT22;9178;51.120;6.192;2023-06-26T14:24:55;30.00;54.60
18103;DHT22;9178;51.120;6.192;2023-06-26T14:27:22;30.40;53.40
18103;DHT22;9178;51.120;6.192;2023-06-26T14:29:49;30.70;55.70
18103;DHT22;9178;51.120;6.192;2023-06-26T14:32:16;30.80;53.10
18103;DHT22;9178;51.120;6.192;2023-06-26T14:34:45;30.70;52.00
18103;DHT22;9178;51.120;6.192;2023-06-26T14:37:12;30.30;52.40
18103;DHT22;9178;51.120;6.192;2023-06-26T14:39:39;30.20;51.60
18103;DHT22;9178;51.120;6.192;2023-06-26T14:42:06;30.20;53.50
18103;DHT22;9178;51.120;6.192;2023-06-26T14:44:34;29.90;52.10
18103;DHT22;9178;51.120;6.192;2023-06-26T14:47:01;29.70;52.80
18103;DHT22;9178;51.120;6.192;2023-06-26T14:49:28;29.60;55.80
18103;DHT22;9178;51.120;6.192;2023-06-26T14:51:56;29.80;55.50
18103;DHT22;9178;51.120;6.192;2023-06-26T14:54:29;29.60;54.30
18103;DHT22;9178;51.120;6.192;2023-06-26T14:56:58;29.00;55.30
18103;DHT22;9178;51.120;6.192;2023-06-26T14:59:26;28.90;54.20
18103;DHT22;9178;51.120;6.192;2023-06-26T15:01:53;28.60;56.70
18103;DHT22;9178;51.120;6.192;2023-06-26T15:04:20;28.10;55.50
18103;DHT22;9178;51.120;6.192;2023-06-26T15:06:48;28.20;57.40
18103;DHT22;9178;51.120;6.192;2023-06-26T15:09:20;27.90;56.70
18103;DHT22;9178;51.120;6.192;2023-06-26T15:11:56;27.70;55.80
18103;DHT22;9178;51.120;6.192;2023-06-26T15:14:23;27.70;56.40
18103;DHT22;9178;51.120;6.192;2023-06-26T15:17:08;27.60;56.50
18103;DHT22;9178;51.120;6.192;2023-06-26T15:19:38;27.60;56.70
18103;DHT22;9178;51.120;6.192;2023-06-26T15:22:06;27.20;56.60
18103;DHT22;9178;51.120;6.192;2023-06-26T15:24:37;27.00;56.00
18103;DHT22;9178;51.120;6.192;2023-06-26T15:27:05;27.00;56.30
18103;DHT22;9178;51.120;6.192;2023-06-26T15:29:32;27.00;58.50
18103;DHT22;9178;51.120;6.192;2023-06-26T15:31:59;27.00;59.00
18103;DHT22;9178;51.120;6.192;2023-06-26T15:34:28;27.00;57.40
18103;DHT22;9178;51.120;6.192;2023-06-26T15:36:55;27.00;59.10
18103;DHT22;9178;51.120;6.192;2023-06-26T15:39:22;27.20;57.30
18103;DHT22;9178;51.120;6.192;2023-06-26T15:41:54;27.00;57.40
18103;DHT22;9178;51.120;6.192;2023-06-26T15:44:24;26.90;57.90
18103;DHT22;9178;51.120;6.192;2023-06-26T15:46:53;27.10;60.20
18103;DHT22;9178;51.120;6.192;2023-06-26T15:49:20;27.50;58.80
18103;DHT22;9178;51.120;6.192;2023-06-26T15:51:50;27.70;58.70
18103;DHT22;9178;51.120;6.192;2023-06-26T15:54:17;27.70;57.20
18103;DHT22;9178;51.120;6.192;2023-06-26T15:56:44;27.70;58.70
18103;DHT22;9178;51.120;6.192;2023-06-26T15:59:14;27.60;57.10
18103;DHT22;9178;51.120;6.192;2023-06-26T16:01:44;27.50;59.20
18103;DHT22;9178;51.120;6.192;2023-06-26T16:04:14;27.50;60.60
18103;DHT22;9178;51.120;6.192;2023-06-26T16:06:43;27.50;61.80
18103;DHT22;9178;51.120;6.192;2023-06-26T16:09:10;27.60;60.10
18103;DHT22;9178;51.120;6.192;2023-06-26T16:11:37;27.40;57.40
18103;DHT22;9178;51.120;6.192;2023-06-26T16:14:07;27.00;58.40